createdAt,value
2022-09-15T00:02:07.723Z,18.80
2022-09-15T00:05:10.711Z,18.80
2022-09-15T00:08:13.291Z,18.35
2022-09-15T00:11:23.797Z,18.70
2022-09-15T00:14:26.174Z,18.69
2022-09-15T00:17:29.791Z,18.71
2022-09-15T00:20:32.226Z,18.82
2022-09-15T00:23:35.369Z,18.83
2022-09-15T00:26:37.843Z,18.94
2022-09-15T00:29:43.352Z,18.70
2022-09-15T00:32:45.601Z,18.96
2022-09-15T00:35:49.859Z,18.97
2022-09-15T00:38:52.090Z,19.04
2022-09-15T00:41:54.619Z,19.01
2022-09-15T00:44:59.539Z,18.92
2022-09-15T00:48:04.452Z,18.91
2022-09-15T00:51:06.897Z,18.93
2022-09-15T00:54:15.253Z,18.89
2022-09-15T00:57:36.762Z,18.80
2022-09-15T01:00:56.788Z,18.85
2022-09-15T01:03:59.338Z,18.82
2022-09-15T01:07:05.887Z,18.82
2022-09-15T01:10:14.435Z,18.83
2022-09-15T01:13:17.009Z,18.86
2022-09-15T01:16:29.273Z,18.87
2022-09-15T01:20:00.488Z,18.88
2022-09-15T01:23:08.611Z,18.87
2022-09-15T01:26:29.720Z,18.94
2022-09-15T01:29:57.382Z,18.92
2022-09-15T01:33:14.822Z,18.88
2022-09-15T01:36:22.095Z,18.85
2022-09-15T01:39:30.028Z,18.86
2022-09-15T01:42:32.351Z,18.93
2022-09-15T01:45:34.987Z,18.98
2022-09-15T01:48:37.307Z,19.03
2022-09-15T01:51:39.918Z,19.05
2022-09-15T01:54:45.780Z,18.82
2022-09-15T01:57:48.646Z,18.99
2022-09-15T02:00:57.632Z,19.00
2022-09-15T02:04:05.076Z,19.00
2022-09-15T02:07:28.786Z,19.00
2022-09-15T02:10:46.868Z,18.92
2022-09-15T02:14:00.686Z,18.87
2022-09-15T02:17:05.464Z,18.83
2022-09-15T02:20:25.638Z,18.79
2022-09-15T02:23:31.561Z,18.74
2022-09-15T02:26:33.894Z,18.68
2022-09-15T02:29:36.447Z,18.36
2022-09-15T02:32:40.807Z,18.62
2022-09-15T02:35:43.583Z,18.59
2022-09-15T02:38:54.258Z,18.69
2022-09-15T02:41:57.186Z,18.78
2022-09-15T02:45:00.659Z,18.67
2022-09-15T02:48:03.467Z,18.65
2022-09-15T02:51:05.845Z,18.56
2022-09-15T02:54:08.578Z,18.63
2022-09-15T02:57:10.813Z,18.62
2022-09-15T03:00:14.441Z,18.52
2022-09-15T03:03:22.035Z,18.55
2022-09-15T03:06:27.909Z,18.54
2022-09-15T03:09:30.279Z,18.12
2022-09-15T03:12:42.278Z,18.48
2022-09-15T03:15:47.705Z,18.50
2022-09-15T03:18:50.271Z,18.51
2022-09-15T03:21:52.593Z,18.46
2022-09-15T03:24:55.239Z,18.31
2022-09-15T03:27:58.225Z,18.41
2022-09-15T03:31:00.954Z,18.33
2022-09-15T03:34:03.316Z,18.39
2022-09-15T03:37:06.727Z,18.46
2022-09-15T03:40:10.860Z,18.42
2022-09-15T03:43:18.536Z,18.49
2022-09-15T03:46:21.014Z,18.47
2022-09-15T03:49:24.605Z,18.47
2022-09-15T03:52:26.907Z,18.20
2022-09-15T03:55:29.617Z,18.13
2022-09-15T03:58:31.943Z,18.33
2022-09-15T04:01:34.691Z,18.50
2022-09-15T04:04:37.273Z,18.42
2022-09-15T04:07:40.561Z,18.28
2022-09-15T04:10:43.127Z,18.42
2022-09-15T04:13:45.796Z,18.43
2022-09-15T04:16:48.464Z,18.41
2022-09-15T04:19:50.749Z,18.52
2022-09-15T04:22:53.357Z,18.57
2022-09-15T04:25:59.723Z,18.30
2022-09-15T04:29:04.606Z,18.30
2022-09-15T04:32:07.320Z,18.70
2022-09-15T04:35:10.186Z,18.79
2022-09-15T04:38:12.611Z,18.86
2022-09-15T04:41:16.606Z,18.76
2022-09-15T04:44:18.935Z,18.73
2022-09-15T04:47:21.609Z,18.79
2022-09-15T04:50:31.390Z,18.86
2022-09-15T04:53:37.447Z,18.86
2022-09-15T04:56:42.756Z,18.64
2022-09-15T04:59:45.451Z,18.89
2022-09-15T05:02:47.970Z,18.92
2022-09-15T05:05:50.553Z,18.94
2022-09-15T05:08:54.513Z,18.70
2022-09-15T05:11:57.302Z,19.00
2022-09-15T05:14:59.686Z,18.61
2022-09-15T05:18:02.566Z,19.09
2022-09-15T05:21:05.474Z,19.11
2022-09-15T05:24:08.186Z,19.29
2022-09-15T05:27:10.601Z,19.36
2022-09-15T05:30:36.752Z,19.40
2022-09-15T05:33:36.352Z,19.23
2022-09-15T05:36:40.111Z,19.53
2022-09-15T05:39:42.495Z,19.61
2022-09-15T05:42:45.125Z,19.59
2022-09-15T05:46:00.247Z,19.65
2022-09-15T05:49:03.293Z,19.57
2022-09-15T05:52:05.891Z,19.83
2022-09-15T05:55:09.181Z,19.83
2022-09-15T05:58:11.597Z,19.84
2022-09-15T06:01:16.869Z,19.64
2022-09-15T06:04:19.543Z,19.90
2022-09-15T06:07:27.681Z,20.00
2022-09-15T06:10:30.423Z,20.12
2022-09-15T06:13:33.076Z,20.27
2022-09-15T06:16:35.949Z,20.35
2022-09-15T06:19:38.766Z,20.41
2022-09-15T06:22:41.831Z,20.45
2022-09-15T06:25:44.260Z,20.48
2022-09-15T06:28:53.967Z,20.52
2022-09-15T06:31:58.314Z,20.55
2022-09-15T06:35:07.174Z,20.59
2022-09-15T06:38:09.409Z,20.65
2022-09-15T06:41:12.077Z,20.76
2022-09-15T06:44:14.958Z,20.78
2022-09-15T06:47:17.484Z,20.84
2022-09-15T06:50:19.758Z,20.96
2022-09-15T06:53:23.888Z,20.94
2022-09-15T06:56:27.726Z,20.91
2022-09-15T06:59:31.804Z,20.93
2022-09-15T07:02:34.158Z,21.00
2022-09-15T07:05:36.786Z,21.01
2022-09-15T07:08:39.767Z,21.00
2022-09-15T07:11:42.324Z,21.03
2022-09-15T07:14:44.731Z,21.05
2022-09-15T07:17:47.385Z,21.08
2022-09-15T07:20:49.909Z,21.08
2022-09-15T07:23:53.466Z,21.06
2022-09-15T07:26:55.864Z,21.09
2022-09-15T07:29:58.954Z,21.12
2022-09-15T07:33:07.971Z,21.33
2022-09-15T07:36:11.725Z,21.56
2022-09-15T07:39:14.374Z,21.84
2022-09-15T07:42:17.056Z,21.96
2022-09-15T07:45:19.972Z,22.19
2022-09-15T07:48:26.538Z,22.41
2022-09-15T07:51:29.146Z,22.56
2022-09-15T07:54:31.829Z,22.66
2022-09-15T07:57:37.339Z,22.69
2022-09-15T08:00:42.934Z,22.53
2022-09-15T08:03:56.082Z,22.63
2022-09-15T08:07:01.546Z,22.81
2022-09-15T08:10:09.979Z,22.95
2022-09-15T08:13:15.425Z,23.06
2022-09-15T08:16:22.306Z,22.93
2022-09-15T08:19:28.711Z,22.84
2022-09-15T08:23:00.592Z,22.70
2022-09-15T08:26:21.365Z,22.56
2022-09-15T08:29:25.936Z,22.52
2022-09-15T08:32:35.747Z,22.62
2022-09-15T08:36:12.133Z,22.41
2022-09-15T08:39:14.613Z,22.86
2022-09-15T08:42:18.677Z,23.07
2022-09-15T08:45:28.389Z,22.98
2022-09-15T08:48:39.846Z,23.46
2022-09-15T08:51:45.272Z,23.60
2022-09-15T08:54:47.884Z,23.74
2022-09-15T08:57:55.865Z,24.01
2022-09-15T09:01:10.822Z,23.65
2022-09-15T09:04:37.227Z,24.31
2022-09-15T09:07:55.010Z,24.42
2022-09-15T09:11:25.554Z,24.40
2022-09-15T09:15:03.445Z,24.33
2022-09-15T09:18:18.883Z,24.12
2022-09-15T09:21:30.177Z,24.29
2022-09-15T09:24:39.074Z,24.33
2022-09-15T09:27:43.087Z,24.59
2022-09-15T09:30:48.674Z,24.80
2022-09-15T09:33:56.872Z,24.91
2022-09-15T09:37:01.310Z,24.71
2022-09-15T09:40:04.386Z,25.13
2022-09-15T09:43:09.910Z,25.03
2022-09-15T09:46:17.722Z,24.99
2022-09-15T09:53:32.788Z,24.89
2022-09-15T09:56:35.640Z,24.95
2022-09-15T09:59:42.815Z,24.87
2022-09-15T10:02:48.365Z,24.97
2022-09-15T10:06:10.275Z,24.82
2022-09-15T10:09:20.970Z,24.78
2022-09-15T10:12:29.470Z,24.43
2022-09-15T10:15:39.132Z,24.71
2022-09-15T10:18:41.928Z,24.98
2022-09-15T10:21:44.222Z,25.21
2022-09-15T10:24:47.036Z,25.31
2022-09-15T10:28:12.459Z,25.34
2022-09-15T10:31:29.603Z,25.47
2022-09-15T10:34:34.563Z,25.56
2022-09-15T10:37:39.513Z,25.66
2022-09-15T10:41:01.452Z,25.60
2022-09-15T10:44:10.853Z,25.49
2022-09-15T10:47:41.590Z,25.18
2022-09-15T10:51:03.299Z,25.38
2022-09-15T10:54:47.093Z,25.28
2022-09-15T10:58:13.736Z,25.53
2022-09-15T11:01:27.437Z,25.48
2022-09-15T11:04:48.117Z,25.51
2022-09-15T11:08:08.646Z,25.71
2022-09-15T11:11:20.199Z,25.42
2022-09-15T11:15:05.329Z,25.76
2022-09-15T11:18:29.751Z,25.79
2022-09-15T11:21:52.611Z,25.60
2022-09-15T11:25:03.099Z,25.36
2022-09-15T11:28:17.747Z,25.13
2022-09-15T11:31:30.073Z,25.14
2022-09-15T11:34:49.181Z,25.12
2022-09-15T11:38:02.349Z,25.04
2022-09-15T11:41:07.804Z,24.98
2022-09-15T11:44:20.881Z,24.88
2022-09-15T11:47:27.812Z,24.79
2022-09-15T11:50:32.595Z,24.82
2022-09-15T11:53:50.918Z,24.94
2022-09-15T11:56:53.560Z,25.05
